Terminal Aerodrome Forecast
Issued by NWS

Home | Current Version | Previous Version | Graphics & Text | Print | Product List | Glossary On
Versions: 1 2 3 4 5 6 7 8 9 10 11 12 13 14 15
494
FTUS43 KABR 212332
TAFPIR
TAF
KPIR 212332Z 2200/2224 16021G31KT P6SM OVC045
     FM220200 14017KT P6SM BKN045
     FM220900 13015KT P6SM VCSH BKN020
     FM221600 15017KT P6SM BKN015=

USA.gov is the U.S. government's official web portal to all federal, state and local government web resources and services.